createdAt,value
2019-06-15T00:00:54.210Z,22.00
2019-06-15T00:03:20.449Z,22.00
2019-06-15T00:05:46.688Z,21.90
2019-06-15T00:08:13.723Z,21.90
2019-06-15T00:10:40.266Z,21.80
2019-06-15T00:13:06.604Z,21.80
2019-06-15T00:15:32.969Z,21.70
2019-06-15T00:17:59.201Z,21.60
2019-06-15T00:20:25.440Z,21.60
2019-06-15T00:22:51.744Z,21.50
2019-06-15T00:25:18.016Z,21.50
2019-06-15T00:27:44.573Z,21.40
2019-06-15T00:30:12.056Z,21.40
2019-06-15T00:32:38.360Z,21.40
2019-06-15T00:35:08.446Z,21.40
2019-06-15T00:37:34.864Z,21.40
2019-06-15T00:40:03.953Z,21.40
2019-06-15T00:42:30.271Z,21.50
2019-06-15T00:44:56.805Z,21.50
2019-06-15T00:47:23.076Z,21.50
2019-06-15T00:49:49.523Z,21.50
2019-06-15T00:52:15.770Z,21.50
2019-06-15T00:54:49.914Z,21.50
2019-06-15T00:57:10.309Z,21.50
2019-06-15T00:59:36.532Z,21.50
2019-06-15T01:02:03.152Z,21.50
2019-06-15T01:04:29.420Z,21.50
2019-06-15T01:06:55.772Z,21.50
2019-06-15T01:09:22.007Z,21.50
2019-06-15T01:11:48.239Z,21.50
2019-06-15T01:14:14.622Z,21.50
2019-06-15T01:16:40.909Z,21.40
2019-06-15T01:19:07.151Z,21.40
2019-06-15T01:21:33.387Z,21.40
2019-06-15T01:23:59.705Z,21.40
2019-06-15T01:26:26.117Z,21.40
2019-06-15T01:28:52.649Z,21.30
2019-06-15T01:31:18.887Z,21.30
2019-06-15T01:33:45.152Z,21.40
2019-06-15T01:36:11.544Z,21.40
2019-06-15T01:38:37.784Z,21.40
2019-06-15T01:41:04.228Z,21.30
2019-06-15T01:43:30.523Z,21.40
2019-06-15T01:45:56.799Z,21.40
2019-06-15T01:48:23.114Z,21.30
2019-06-15T01:50:49.343Z,21.40
2019-06-15T01:53:15.700Z,21.40
2019-06-15T01:55:41.979Z,21.30
2019-06-15T01:58:08.507Z,21.30
2019-06-15T02:00:34.950Z,21.30
2019-06-15T02:03:02.049Z,21.30
2019-06-15T02:05:28.416Z,21.20
2019-06-15T02:07:54.766Z,21.20
2019-06-15T02:10:28.858Z,21.20
2019-06-15T02:12:55.517Z,21.20
2019-06-15T02:15:22.148Z,21.20
2019-06-15T02:17:48.431Z,21.20
2019-06-15T02:20:15.587Z,21.30
2019-06-15T02:22:41.882Z,21.20
2019-06-15T02:25:09.413Z,21.30
2019-06-15T02:27:35.856Z,21.40
2019-06-15T02:30:05.493Z,21.50
2019-06-15T02:32:32.208Z,21.50
2019-06-15T02:34:58.580Z,21.50
2019-06-15T02:37:24.986Z,21.50
2019-06-15T02:39:51.430Z,21.50
2019-06-15T02:42:17.996Z,21.50
2019-06-15T02:44:44.451Z,21.50
2019-06-15T02:47:10.894Z,21.60
2019-06-15T02:49:37.260Z,21.50
2019-06-15T02:52:03.793Z,21.60
2019-06-15T02:54:30.030Z,21.60
2019-06-15T02:56:57.389Z,21.60
2019-06-15T02:59:23.639Z,21.60
2019-06-15T03:01:49.859Z,21.50
2019-06-15T03:04:16.096Z,21.50
2019-06-15T03:06:42.626Z,21.40
2019-06-15T03:09:09.049Z,21.30
2019-06-15T03:11:35.483Z,21.30
2019-06-15T03:14:04.050Z,21.10
2019-06-15T03:16:30.270Z,21.10
2019-06-15T03:18:56.594Z,21.00
2019-06-15T03:21:22.937Z,20.90
2019-06-15T03:23:49.191Z,20.80
2019-06-15T03:26:15.627Z,20.70
2019-06-15T03:28:42.076Z,20.60
2019-06-15T03:31:08.323Z,20.50
2019-06-15T03:33:35.153Z,20.50
2019-06-15T03:36:01.579Z,20.40
2019-06-15T03:38:27.832Z,20.30
2019-06-15T03:40:54.096Z,20.30
2019-06-15T03:43:20.339Z,20.10
2019-06-15T03:45:46.759Z,20.10
2019-06-15T03:48:13.054Z,20.00
2019-06-15T03:50:39.394Z,19.90
2019-06-15T03:53:05.666Z,19.90
2019-06-15T03:55:31.913Z,19.90
2019-06-15T03:57:58.198Z,19.80
2019-06-15T04:00:45.429Z,19.80
2019-06-15T04:03:12.283Z,19.70
2019-06-15T04:05:39.930Z,19.70
2019-06-15T04:08:06.530Z,19.70
2019-06-15T04:10:32.779Z,19.60
2019-06-15T04:12:59.072Z,19.70
2019-06-15T04:15:25.333Z,19.60
2019-06-15T04:17:51.578Z,19.60
2019-06-15T04:20:17.806Z,19.60
2019-06-15T04:22:44.386Z,19.60
2019-06-15T04:25:11.116Z,19.60
2019-06-15T04:27:37.365Z,19.60
2019-06-15T04:30:05.046Z,19.70
2019-06-15T04:32:31.308Z,19.60
2019-06-15T04:34:57.528Z,19.60
2019-06-15T04:37:23.754Z,19.60
2019-06-15T04:39:50.003Z,19.70
2019-06-15T04:42:16.246Z,19.70
2019-06-15T04:44:42.512Z,19.70
2019-06-15T04:47:08.789Z,19.80
2019-06-15T04:49:35.040Z,19.90
2019-06-15T04:52:01.601Z,19.90
2019-06-15T04:54:28.238Z,20.00
2019-06-15T04:56:54.462Z,20.00
2019-06-15T04:59:20.706Z,20.00
2019-06-15T05:01:47.629Z,20.10
2019-06-15T05:04:13.920Z,20.20
2019-06-15T05:06:40.170Z,20.40
2019-06-15T05:09:06.513Z,20.90
2019-06-15T05:11:33.033Z,21.60
2019-06-15T05:13:59.277Z,22.40
2019-06-15T05:16:25.514Z,23.20
2019-06-15T05:18:51.757Z,24.00
2019-06-15T05:21:18.051Z,24.90
2019-06-15T05:23:44.382Z,25.60
2019-06-15T05:26:10.868Z,26.40
2019-06-15T05:28:37.119Z,27.20
2019-06-15T05:31:03.903Z,27.90
2019-06-15T05:33:30.112Z,28.60
2019-06-15T05:35:56.461Z,29.40
2019-06-15T05:38:22.775Z,30.00
2019-06-15T05:40:49.017Z,30.40
2019-06-15T05:43:15.338Z,30.70
2019-06-15T05:45:41.781Z,31.00
2019-06-15T05:48:08.123Z,31.40
2019-06-15T05:50:34.453Z,31.80
2019-06-15T05:53:00.708Z,32.20
2019-06-15T05:55:26.961Z,32.40
2019-06-15T05:57:53.206Z,32.60
2019-06-15T06:00:19.640Z,32.90
2019-06-15T06:02:45.876Z,33.10
2019-06-15T06:05:12.530Z,33.20
2019-06-15T06:07:38.865Z,33.40
2019-06-15T06:10:06.516Z,33.50
2019-06-15T06:12:33.667Z,33.60
2019-06-15T06:15:00.006Z,33.80
2019-06-15T06:17:26.350Z,33.90
2019-06-15T06:19:52.678Z,33.90
2019-06-15T06:22:19.072Z,34.00
2019-06-15T06:24:45.421Z,34.10
2019-06-15T06:27:11.653Z,34.00
2019-06-15T06:29:37.901Z,34.10
2019-06-15T06:32:04.246Z,34.20
2019-06-15T06:34:30.519Z,34.30
2019-06-15T06:36:56.867Z,34.30
2019-06-15T06:39:23.203Z,34.30
2019-06-15T06:41:51.365Z,34.30
2019-06-15T06:44:17.704Z,34.30
2019-06-15T06:46:44.011Z,34.30
2019-06-15T06:49:10.326Z,34.20
2019-06-15T06:51:36.564Z,34.30
2019-06-15T06:54:03.016Z,34.30
2019-06-15T06:56:29.348Z,34.50
2019-06-15T06:58:55.688Z,34.70
2019-06-15T07:01:22.440Z,34.80
2019-06-15T07:03:48.735Z,34.90
2019-06-15T07:06:15.479Z,35.10
2019-06-15T07:08:42.132Z,35.20
2019-06-15T07:11:08.549Z,35.20
2019-06-15T07:13:34.900Z,35.10
2019-06-15T07:16:01.294Z,35.10
2019-06-15T07:18:27.632Z,35.10
2019-06-15T07:20:55.425Z,35.10
2019-06-15T07:23:21.775Z,35.10
2019-06-15T07:25:48.233Z,35.10
2019-06-15T07:28:14.633Z,35.10
2019-06-15T07:30:41.046Z,35.10
2019-06-15T07:33:07.380Z,35.20
2019-06-15T07:35:33.662Z,35.20
2019-06-15T07:37:59.950Z,35.10
2019-06-15T07:40:26.293Z,35.10
2019-06-15T07:42:52.643Z,35.00
2019-06-15T07:45:19.010Z,34.90
2019-06-15T07:47:45.248Z,35.00
2019-06-15T07:50:11.917Z,35.00
2019-06-15T07:52:38.469Z,35.00
2019-06-15T07:55:06.406Z,34.80
2019-06-15T07:57:32.727Z,34.70
2019-06-15T07:59:58.967Z,34.60
2019-06-15T08:02:25.291Z,34.50
2019-06-15T08:04:51.547Z,34.50
2019-06-15T08:07:17.975Z,34.30
2019-06-15T08:09:44.190Z,34.30
2019-06-15T08:12:10.596Z,34.30
2019-06-15T08:14:37.127Z,34.40
2019-06-15T08:17:03.584Z,34.30
2019-06-15T08:19:30.167Z,34.30
2019-06-15T08:21:56.709Z,34.30
2019-06-15T08:24:23.058Z,34.30
2019-06-15T08:26:49.426Z,34.30
2019-06-15T08:29:15.702Z,34.20
2019-06-15T08:31:42.073Z,34.10
2019-06-15T08:34:08.406Z,33.90
2019-06-15T08:36:34.773Z,33.80
2019-06-15T08:39:01.208Z,33.60
2019-06-15T08:41:27.615Z,33.50
2019-06-15T08:43:53.984Z,33.30
2019-06-15T08:46:20.469Z,33.20
2019-06-15T08:48:46.709Z,33.00
2019-06-15T08:51:12.976Z,32.90
2019-06-15T08:53:39.233Z,32.80
2019-06-15T08:56:05.564Z,32.60
2019-06-15T08:58:31.935Z,32.50
2019-06-15T09:00:58.293Z,32.30
2019-06-15T09:03:24.640Z,32.30
2019-06-15T09:05:50.870Z,32.40
2019-06-15T09:08:17.320Z,32.70
2019-06-15T09:10:44.168Z,32.90
2019-06-15T09:13:10.519Z,32.90
2019-06-15T09:15:45.434Z,32.70
2019-06-15T09:18:11.761Z,32.80
2019-06-15T09:20:38.016Z,32.90
2019-06-15T09:23:04.639Z,33.10
2019-06-15T09:25:31.082Z,33.30
2019-06-15T09:27:57.354Z,33.40
2019-06-15T09:30:23.707Z,33.50
2019-06-15T09:32:50.135Z,33.50
2019-06-15T09:35:16.563Z,33.40
2019-06-15T09:37:42.840Z,33.30
2019-06-15T09:40:09.672Z,33.30
2019-06-15T09:42:36.019Z,33.00
2019-06-15T09:45:07.681Z,32.90
2019-06-15T09:47:34.037Z,33.00
2019-06-15T09:50:00.309Z,33.00
2019-06-15T09:52:26.593Z,33.00
2019-06-15T09:54:52.844Z,33.10
2019-06-15T09:57:19.177Z,33.00
2019-06-15T09:59:45.633Z,32.90
2019-06-15T10:02:11.863Z,32.80
2019-06-15T10:04:38.128Z,32.60
2019-06-15T10:07:04.465Z,32.30
2019-06-15T10:09:30.716Z,32.10
2019-06-15T10:11:56.975Z,32.00
2019-06-15T10:14:23.213Z,31.90
2019-06-15T10:16:49.729Z,31.80
2019-06-15T10:19:16.124Z,31.70
2019-06-15T10:21:42.360Z,31.70
2019-06-15T10:24:08.703Z,31.70
2019-06-15T10:26:35.082Z,31.80
2019-06-15T10:29:01.365Z,31.70
2019-06-15T10:31:27.576Z,31.60
2019-06-15T10:33:53.921Z,31.50
2019-06-15T10:36:20.633Z,31.50
2019-06-15T10:38:46.973Z,31.50
2019-06-15T10:41:13.224Z,31.40
2019-06-15T10:43:39.465Z,31.40
2019-06-15T10:46:05.861Z,31.20
2019-06-15T10:48:32.416Z,31.20
2019-06-15T10:50:58.684Z,31.20
2019-06-15T10:53:25.007Z,31.10
2019-06-15T10:55:51.495Z,31.00
2019-06-15T10:58:17.821Z,30.90
2019-06-15T11:00:47.966Z,30.90
2019-06-15T11:03:13.584Z,30.90
2019-06-15T11:05:40.230Z,30.90
2019-06-15T11:08:06.674Z,30.90
2019-06-15T11:10:47.201Z,30.90
2019-06-15T11:13:13.733Z,30.90
2019-06-15T11:15:40.066Z,30.80
2019-06-15T11:18:07.326Z,30.70
2019-06-15T11:20:33.687Z,30.70
2019-06-15T11:22:59.939Z,30.70
2019-06-15T11:25:27.495Z,30.70
2019-06-15T11:27:53.949Z,30.70
2019-06-15T11:30:20.296Z,30.50
2019-06-15T11:32:46.615Z,30.40
2019-06-15T11:35:13.047Z,30.30
2019-06-15T11:37:39.337Z,30.30
2019-06-15T11:40:07.774Z,30.30
2019-06-15T11:42:34.123Z,30.30
2019-06-15T11:45:00.458Z,30.30
2019-06-15T11:47:26.767Z,30.30
2019-06-15T11:49:52.989Z,30.20
2019-06-15T11:52:19.259Z,30.10
2019-06-15T11:54:45.651Z,30.10
2019-06-15T11:57:11.907Z,30.10
2019-06-15T11:59:38.155Z,30.00
2019-06-15T12:02:04.480Z,30.00
2019-06-15T12:04:30.837Z,29.90
2019-06-15T12:06:57.345Z,29.80
2019-06-15T12:09:23.791Z,29.70
2019-06-15T12:11:50.272Z,29.70
2019-06-15T12:14:17.060Z,29.60
2019-06-15T12:16:43.397Z,29.60
2019-06-15T12:19:09.716Z,29.60
2019-06-15T12:21:36.069Z,29.60
2019-06-15T12:24:02.700Z,29.60
2019-06-15T12:26:28.944Z,29.60
2019-06-15T12:28:55.423Z,29.60
2019-06-15T12:31:21.794Z,29.60
2019-06-15T12:33:48.189Z,29.40
2019-06-15T12:36:19.089Z,29.40
2019-06-15T12:38:42.603Z,29.40
2019-06-15T12:41:08.927Z,29.30
2019-06-15T12:43:35.419Z,29.20
2019-06-15T12:46:02.565Z,29.10
2019-06-15T12:48:28.948Z,29.00
2019-06-15T12:50:57.063Z,29.00
2019-06-15T12:53:23.445Z,29.00
2019-06-15T12:55:52.904Z,29.10
2019-06-15T12:58:19.285Z,29.20
2019-06-15T13:00:58.907Z,29.20
2019-06-15T13:03:13.802Z,29.20
2019-06-15T13:05:40.153Z,29.20
2019-06-15T13:08:06.572Z,29.20
2019-06-15T13:10:33.176Z,29.20
2019-06-15T13:12:59.764Z,29.30
2019-06-15T13:15:25.999Z,29.20
2019-06-15T13:17:52.358Z,29.10
2019-06-15T13:20:20.031Z,29.10
2019-06-15T13:22:46.593Z,29.10
2019-06-15T13:25:13.127Z,29.10
2019-06-15T13:27:39.351Z,29.10
2019-06-15T13:30:08.821Z,29.00
2019-06-15T13:32:35.054Z,28.90
2019-06-15T13:35:01.908Z,28.70
2019-06-15T13:37:41.310Z,28.60
2019-06-15T13:39:57.031Z,28.40
2019-06-15T13:42:23.496Z,28.30
2019-06-15T13:44:49.939Z,28.10
2019-06-15T13:47:16.214Z,28.00
2019-06-15T13:49:42.752Z,27.90
2019-06-15T13:52:09.099Z,27.90
2019-06-15T13:54:35.363Z,27.80
2019-06-15T13:57:01.734Z,27.80
2019-06-15T13:59:27.996Z,27.80
2019-06-15T14:01:54.343Z,27.80
2019-06-15T14:04:20.717Z,27.80
2019-06-15T14:06:47.478Z,27.80
2019-06-15T14:09:13.738Z,27.70
2019-06-15T14:11:40.456Z,27.70
2019-06-15T14:14:06.906Z,27.60
2019-06-15T14:16:33.240Z,27.60
2019-06-15T14:18:59.492Z,27.50
2019-06-15T14:21:25.844Z,27.40
2019-06-15T14:23:52.090Z,27.40
2019-06-15T14:26:18.536Z,27.30
2019-06-15T14:28:44.794Z,27.30
2019-06-15T14:31:11.164Z,27.30
2019-06-15T14:33:37.403Z,27.30
2019-06-15T14:36:03.863Z,27.20
2019-06-15T14:38:30.515Z,27.20
2019-06-15T14:40:56.949Z,27.10
2019-06-15T14:43:23.298Z,27.10
2019-06-15T14:45:58.908Z,26.90
2019-06-15T14:48:18.272Z,26.80
2019-06-15T14:50:44.633Z,26.70
2019-06-15T14:53:10.975Z,26.60
2019-06-15T14:55:37.419Z,26.50
2019-06-15T14:58:06.202Z,26.40
2019-06-15T15:00:32.136Z,26.30
2019-06-15T15:02:58.514Z,26.20
2019-06-15T15:05:27.345Z,26.20
2019-06-15T15:07:53.240Z,26.00
2019-06-15T15:10:19.671Z,26.00
2019-06-15T15:12:46.197Z,26.00
2019-06-15T15:15:12.769Z,25.90
2019-06-15T15:17:39.123Z,25.80
2019-06-15T15:20:07.174Z,25.80
2019-06-15T15:22:33.711Z,25.80
2019-06-15T15:24:59.977Z,25.70
2019-06-15T15:27:26.970Z,25.60
2019-06-15T15:29:56.747Z,25.60
2019-06-15T15:32:27.305Z,25.60
2019-06-15T15:34:50.878Z,25.60
2019-06-15T15:37:17.236Z,25.70
2019-06-15T15:39:43.570Z,25.70
2019-06-15T15:42:09.933Z,25.80
2019-06-15T15:44:36.271Z,25.80
2019-06-15T15:47:02.614Z,25.80
2019-06-15T15:49:28.951Z,25.90
2019-06-15T15:51:56.635Z,25.90
2019-06-15T15:54:23.112Z,26.00
2019-06-15T15:56:50.092Z,26.10
2019-06-15T15:59:16.418Z,26.10
2019-06-15T16:01:42.692Z,26.10
2019-06-15T16:04:08.957Z,26.10
2019-06-15T16:06:36.290Z,26.20
2019-06-15T16:09:06.166Z,26.20
2019-06-15T16:11:32.796Z,26.20
2019-06-15T16:13:59.045Z,26.20
2019-06-15T16:16:26.712Z,26.30
2019-06-15T16:18:53.133Z,26.40
2019-06-15T16:21:19.397Z,26.40
2019-06-15T16:23:46.388Z,26.50
2019-06-15T16:26:12.613Z,26.50
2019-06-15T16:28:38.894Z,26.60
2019-06-15T16:31:12.445Z,26.60
2019-06-15T16:33:33.285Z,26.60
2019-06-15T16:35:59.845Z,26.60
2019-06-15T16:38:27.552Z,26.50
2019-06-15T16:40:56.114Z,26.40
2019-06-15T16:43:25.257Z,26.40
2019-06-15T16:45:52.246Z,26.30
2019-06-15T16:48:18.488Z,26.30
2019-06-15T16:50:46.935Z,26.20
2019-06-15T16:53:12.906Z,26.10
2019-06-15T16:55:39.163Z,26.10
2019-06-15T16:58:07.487Z,26.00
2019-06-15T17:00:36.153Z,25.80
2019-06-15T17:03:17.450Z,25.80
2019-06-15T17:05:30.251Z,25.70
2019-06-15T17:07:56.671Z,25.70
2019-06-15T17:10:34.477Z,25.60
2019-06-15T17:13:00.742Z,25.50
2019-06-15T17:15:26.972Z,25.40
2019-06-15T17:17:53.224Z,25.40
2019-06-15T17:20:26.653Z,25.30
2019-06-15T17:22:52.958Z,25.30
2019-06-15T17:25:19.180Z,25.20
2019-06-15T17:27:46.998Z,25.20
2019-06-15T17:30:13.668Z,25.10
2019-06-15T17:32:39.901Z,25.10
2019-06-15T17:35:06.841Z,25.00
2019-06-15T17:37:33.108Z,24.90
2019-06-15T17:39:59.363Z,24.90
2019-06-15T17:42:26.077Z,24.80
2019-06-15T17:44:52.436Z,24.80
2019-06-15T17:47:18.683Z,24.70
2019-06-15T17:49:46.842Z,24.70
2019-06-15T17:52:13.070Z,24.60
2019-06-15T17:54:39.345Z,24.60
2019-06-15T17:57:05.705Z,24.60
2019-06-15T17:59:31.950Z,24.50
2019-06-15T18:01:58.181Z,24.50
2019-06-15T18:04:24.412Z,24.50
2019-06-15T18:06:50.909Z,24.50
2019-06-15T18:09:17.333Z,24.40
2019-06-15T18:11:46.239Z,24.40
2019-06-15T18:14:12.141Z,24.40
2019-06-15T18:16:38.474Z,24.30
2019-06-15T18:19:06.945Z,24.30
2019-06-15T18:21:33.491Z,24.30
2019-06-15T18:23:59.730Z,24.30
2019-06-15T18:26:26.771Z,24.30
2019-06-15T18:28:53.262Z,24.20
2019-06-15T18:31:19.513Z,24.20
2019-06-15T18:33:47.315Z,24.20
2019-06-15T18:36:16.939Z,24.10
2019-06-15T18:38:41.957Z,24.10
2019-06-15T18:41:08.183Z,24.00
2019-06-15T18:43:36.611Z,24.00
2019-06-15T18:46:02.923Z,24.00
2019-06-15T18:48:29.148Z,23.90
2019-06-15T18:50:56.003Z,23.90
2019-06-15T18:53:22.424Z,23.90
2019-06-15T18:55:49.015Z,23.90
2019-06-15T18:58:17.268Z,23.80
2019-06-15T19:00:43.390Z,23.80
2019-06-15T19:03:09.658Z,23.70
2019-06-15T19:05:37.321Z,23.70
2019-06-15T19:08:06.368Z,23.60
2019-06-15T19:10:35.885Z,23.60
2019-06-15T19:13:03.816Z,23.50
2019-06-15T19:15:30.039Z,23.50
2019-06-15T19:17:56.396Z,23.40
2019-06-15T19:20:22.668Z,23.40
2019-06-15T19:22:48.902Z,23.30
2019-06-15T19:25:16.164Z,23.20
2019-06-15T19:27:42.616Z,23.20
2019-06-15T19:30:09.174Z,23.10
2019-06-15T19:32:36.856Z,23.10
2019-06-15T19:35:06.747Z,23.10
2019-06-15T19:37:34.689Z,23.00
2019-06-15T19:40:08.545Z,23.00
2019-06-15T19:42:36.518Z,23.00
2019-06-15T19:45:10.380Z,23.00
2019-06-15T19:47:37.909Z,23.00
2019-06-15T19:50:06.634Z,23.00
2019-06-15T19:52:35.904Z,23.00
2019-06-15T19:55:02.208Z,23.00
2019-06-15T19:57:28.784Z,23.00
2019-06-15T19:59:56.211Z,23.00
2019-06-15T20:02:22.581Z,22.90
2019-06-15T20:05:00.221Z,22.90
2019-06-15T20:07:17.197Z,22.90
2019-06-15T20:09:46.122Z,22.80
2019-06-15T20:12:20.870Z,22.80
2019-06-15T20:14:39.860Z,22.80
2019-06-15T20:17:07.375Z,22.70
2019-06-15T20:19:37.651Z,22.70
2019-06-15T20:22:06.526Z,22.70
2019-06-15T20:24:32.396Z,22.70
2019-06-15T20:26:58.840Z,22.60
2019-06-15T20:29:27.104Z,22.60
2019-06-15T20:31:53.661Z,22.60
2019-06-15T20:34:20.023Z,22.60
2019-06-15T20:36:47.121Z,22.60
2019-06-15T20:39:16.277Z,22.60
2019-06-15T20:41:41.631Z,22.60
2019-06-15T20:44:07.886Z,22.60
2019-06-15T20:46:34.125Z,22.60
2019-06-15T20:49:00.485Z,22.50
2019-06-15T20:51:26.834Z,22.50
2019-06-15T20:53:53.092Z,22.50
2019-06-15T20:56:19.330Z,22.50
2019-06-15T20:58:45.662Z,22.50
2019-06-15T21:01:11.955Z,22.50
2019-06-15T21:03:38.280Z,22.50
2019-06-15T21:06:06.849Z,22.40
2019-06-15T21:08:33.033Z,22.40
2019-06-15T21:10:59.367Z,22.40
2019-06-15T21:13:26.385Z,22.40
2019-06-15T21:15:53.259Z,22.30
2019-06-15T21:18:19.549Z,22.30
2019-06-15T21:20:47.043Z,22.30
2019-06-15T21:23:16.123Z,22.30
2019-06-15T21:25:41.994Z,22.20
2019-06-15T21:28:08.213Z,22.20
2019-06-15T21:30:36.779Z,22.10
2019-06-15T21:33:02.899Z,22.10
2019-06-15T21:35:29.151Z,22.10
2019-06-15T21:37:57.194Z,22.00
2019-06-15T21:40:23.797Z,22.00
2019-06-15T21:42:50.158Z,21.90
2019-06-15T21:45:16.502Z,21.90
2019-06-15T21:47:42.733Z,21.90
2019-06-15T21:50:09.815Z,21.80
2019-06-15T21:52:36.519Z,21.80
2019-06-15T21:55:06.995Z,21.70
2019-06-15T21:57:33.356Z,21.60
2019-06-15T21:59:59.605Z,21.60
2019-06-15T22:02:26.652Z,21.50
2019-06-15T22:04:53.091Z,21.40
2019-06-15T22:07:19.330Z,21.40
2019-06-15T22:09:46.889Z,21.30
2019-06-15T22:12:16.305Z,21.20
2019-06-15T22:14:42.831Z,21.10
2019-06-15T22:17:09.092Z,21.00
2019-06-15T22:19:36.846Z,21.00
2019-06-15T22:22:03.502Z,21.00
2019-06-15T22:24:30.078Z,21.00
2019-06-15T22:26:56.356Z,20.90
2019-06-15T22:29:22.686Z,21.00
2019-06-15T22:31:49.275Z,20.90
2019-06-15T22:34:16.238Z,20.70
2019-06-15T22:36:42.668Z,20.50
2019-06-15T22:39:09.297Z,20.40
2019-06-15T22:41:36.167Z,20.20
2019-06-15T22:44:02.907Z,20.00
2019-06-15T22:46:29.153Z,19.80
2019-06-15T22:48:56.175Z,19.70
2019-06-15T22:51:22.838Z,19.50
2019-06-15T22:53:49.183Z,19.10
2019-06-15T22:56:17.073Z,18.70
2019-06-15T22:58:45.968Z,18.20
2019-06-15T23:01:11.845Z,17.80
2019-06-15T23:03:38.172Z,17.60
2019-06-15T23:06:06.735Z,17.40
2019-06-15T23:08:32.656Z,17.20
2019-06-15T23:10:58.884Z,17.10
2019-06-15T23:13:26.158Z,17.00
2019-06-15T23:15:52.548Z,16.90
2019-06-15T23:18:19.216Z,16.80
2019-06-15T23:20:46.182Z,16.70
2019-06-15T23:23:12.838Z,16.60
2019-06-15T23:25:39.774Z,16.60
2019-06-15T23:28:07.102Z,16.60
2019-06-15T23:30:36.377Z,16.60
2019-06-15T23:33:01.609Z,16.60
2019-06-15T23:35:29.766Z,16.60
2019-06-15T23:37:56.042Z,16.60
2019-06-15T23:40:26.715Z,16.60
2019-06-15T23:42:52.410Z,16.60
2019-06-15T23:45:19.560Z,16.60
2019-06-15T23:47:46.833Z,16.60
2019-06-15T23:50:16.957Z,16.70
2019-06-15T23:52:43.713Z,16.70
2019-06-15T23:55:10.431Z,16.70
2019-06-15T23:57:36.994Z,16.80
